• Join FlightAware (Why Join?)
  • Login
  • US Flag 
Rudolph Flight #1: Arrived! 
08:23AM EST


 

Airport Tracker/Info


-or-


 

Live Flight TrackerFlight Track Log ✈ AWE1604 ✈ 20-Apr-2013 ✈ KRDU - KPHL

Flight Track Log - Related Links

Times and Time Zones

All times are in EDT time to prevent confusion due to time zone crossing. See the AWE1604 flight status page for this flight to view local times or setup timezone preferences in your user account.

Time Position Orientation Groundspeed Altitude Reporting Facility
EDT Latitude Longitude Course Direction KTS MPH feet Rate Location/Type
09:12AM 35.9136 -78.7644 20° North 162 186 2,000  Level Washington Center
09:13AM 36.1688 -78.6682 19° North  Level FlightAware Approximate
09:13AM 35.9772 -78.7286 25° Northeast 214 246 4,700  Level Washington Center
09:14AM 36.2693 -78.6269 15° North  Level FlightAware Approximate
09:14AM 36.0486 -78.7083 13° North 233 268 7,400  Level Washington Center
09:15AM 36.3719 -78.5945 11° North  Level FlightAware Approximate
09:15AM 36.1286 -78.6831 14° North 268 308 10,200  Level Washington Center
09:16AM 36.4747 -78.5631 20° North  Level FlightAware Approximate
09:16AM 36.2233 -78.6533 14° North 309 356 11,900  Level Washington Center
09:17AM 36.5744 -78.5188 20° North  Level FlightAware Approximate
09:17AM 36.3286 -78.6214 14° North 353 406 14,400  Level Washington Center
09:18AM 36.4381 -78.5842 15° North 382 440 17,000 2,220 Climbing Washington Center
09:19AM 36.5494 -78.5447 16° North 405 466 18,900 1,800 Climbing Washington Center
09:20AM 36.6758 -78.5028 15° North 428 493 20,700 1,680 Climbing Washington Center
09:21AM 36.7961 -78.4347 24° Northeast 450 518 22,300 1,560 Climbing Washington Center
09:22AM 36.9092 -78.3322 36° Northeast 471 542 23,900 900 Climbing Washington Center
09:24AM 37.1686 -78.1097 34° Northeast 516 594 25,000 360 Climbing Washington Center
09:25AM 37.2875 -78.0039 35° Northeast 526 605 25,000  Level Washington Center
09:26AM 37.4106 -77.8981 34° Northeast 526 605 25,000  Level Washington Center
09:27AM 37.5317 -77.7889 36° Northeast 526 605 25,000  Level Washington Center
09:28AM 37.6525 -77.6850 34° Northeast 526 605 25,000  Level Washington Center
09:29AM 37.7753 -77.5781 35° Northeast 526 605 25,000  Level Washington Center
09:30AM 37.8958 -77.4681 36° Northeast 526 605 25,000  Level Washington Center
09:31AM 38.0183 -77.3631 34° Northeast 526 605 25,000 -120 Level Washington Center
09:32AM 38.1367 -77.2575 35° Northeast 526 605 24,800 -240 Descending Washington Center
09:33AM 38.2611 -77.1439 36° Northeast 531 611 24,600 -300 Descending Washington Center
09:34AM 38.3833 -77.0381 34° Northeast 536 617 24,200 -300 Descending Washington Center
09:35AM 38.5056 -76.9289 35° Northeast 531 611 24,000 -120 Descending Washington Center
09:36AM 38.6236 -76.8194 36° Northeast 526 605 24,000  Level Washington Center
09:37AM 38.7189 -76.6772 49° Northeast 516 594 24,000 -960 Level Washington Center
09:38AM 38.7536 -76.5072 75° East 482 555 22,100 -2,280 Descending Washington Center
09:39AM 38.7881 -76.3400 75° East 482 555 19,500 -2,760 Descending Washington Center
09:40AM 38.8181 -76.1831 76° East 469 540 16,600 -2,280 Descending Washington Center
09:41AM 38.8519 -76.0475 72° East 458 527 15,000 -1,140 Descending Washington Center
09:42AM 38.8817 -75.9008 75° East 433 498 14,400 -1,200 Descending Washington Center
09:43AM 38.9444 -75.7892 54° Northeast 392 451 12,600 -1,680 Descending Washington Center
09:45AM 39.0794 -75.6756 33° Northeast 342 394 10,100 -1,380 Descending FAA TRACON SMA TRACON (SMA)
09:45AM 39.1147 -75.6717 North 322 371 10,000  Descending FAA TRACON SMA TRACON (SMA)
09:45AM 39.1417 -75.6686 North 317 365 10,100 120 Climbing FAA TRACON SMA TRACON (SMA)
09:46AM 39.1689 -75.6656 North 319 367 10,100 -180 Level FAA TRACON SMA TRACON (SMA)
09:46AM 39.1997 -75.6619 North 317 365 10,000  Descending FAA TRACON SMA TRACON (SMA)
09:46AM 39.2300 -75.6592 North 315 362 10,100 120 Climbing FAA TRACON SMA TRACON (SMA)
09:47AM 39.2569 -75.6561 North 317 365 10,100  Level FAA TRACON SMA TRACON (SMA)
09:47AM 39.2842 -75.6489 12° North 329 379 10,100  Level FAA TRACON SMA TRACON (SMA)
09:47AM 39.3153 -75.6267 29° Northeast 337 388 10,100 -180 Level FAA TRACON SMA TRACON (SMA)
09:48AM 39.3383 -75.6058 35° Northeast 335 386 10,000 -900 Descending FAA TRACON SMA TRACON (SMA)
09:48AM 39.3669 -75.5808 34° Northeast 330 380 9,500 -1,080 Descending FAA TRACON SMA TRACON (SMA)
09:48AM 39.3828 -75.5619 43° Northeast 327 376 9,300 -1,080 Descending FAA TRACON SMA TRACON (SMA)
09:49AM 39.3994 -75.5231 61° Northeast 313 360 8,800 -1,380 Descending FAA TRACON SMA TRACON (SMA)
09:49AM 39.4094 -75.4914 68° East 308 354 8,400 -1,380 Descending FAA TRACON SMA TRACON (SMA)
09:49AM 39.4211 -75.4514 69° East 309 356 7,900 -1,380 Descending FAA TRACON SMA TRACON (SMA)
09:50AM 39.4306 -75.4203 69° East 306 352 7,500 -1,200 Descending FAA TRACON SMA TRACON (SMA)
09:50AM 39.4403 -75.3900 67° East 303 349 7,100 -1,500 Descending FAA TRACON SMA TRACON (SMA)
09:50AM 39.4511 -75.3517 70° East 295 339 6,500 -1,500 Descending FAA TRACON SMA TRACON (SMA)
09:51AM 39.4603 -75.3214 69° East 293 337 6,100 -600 Descending FAA TRACON SMA TRACON (SMA)
09:51AM 39.4747 -75.2967 53° Northeast 280 322 6,100 -480 Level FAA TRACON SMA TRACON (SMA)
09:51AM 39.4961 -75.2700 44° Northeast 277 319 5,800 -900 Descending FAA TRACON SMA TRACON (SMA)
09:52AM 39.5133 -75.2494 43° Northeast 273 314 5,500 -1,080 Descending FAA TRACON SMA TRACON (SMA)
09:52AM 39.5342 -75.2239 43° Northeast 272 313 5,100 -600 Descending FAA TRACON SMA TRACON (SMA)
09:52AM 39.5511 -75.2028 44° Northeast 271 312 5,100  Level FAA TRACON SMA TRACON (SMA)
09:53AM 39.5678 -75.1822 44° Northeast 270 311 5,100  Level FAA TRACON SMA TRACON (SMA)
09:53AM 39.5847 -75.1614 43° Northeast 270 311 5,100  Level FAA TRACON SMA TRACON (SMA)
09:53AM 39.6050 -75.1356 44° Northeast 270 311 5,100  Level FAA TRACON SMA TRACON (SMA)
09:54AM 39.6222 -75.1156 42° Northeast 268 308 5,100  Level FAA TRACON SMA TRACON (SMA)
09:54AM 39.6417 -75.0914 44° Northeast 271 312 5,100  Level FAA TRACON SMA TRACON (SMA)
09:54AM 39.6614 -75.0728 36° Northeast 246 283 5,100  Level FAA TRACON SMA TRACON (SMA)
09:55AM 39.6803 -75.0550 36° Northeast 272 313 5,100  Level FAA TRACON SMA TRACON (SMA)
09:55AM 39.7011 -75.0375 33° Northeast 265 305 5,100  Level FAA TRACON SMA TRACON (SMA)
09:55AM 39.7222 -75.0183 35° Northeast 260 299 5,100  Level FAA TRACON SMA TRACON (SMA)
09:56AM 39.7406 -75.0025 34° Northeast 260 299 5,100  Level FAA TRACON SMA TRACON (SMA)
09:56AM 39.7639 -74.9828 33° Northeast 261 300 5,100  Level FAA TRACON SMA TRACON (SMA)
09:56AM 39.7822 -74.9667 34° Northeast 259 298 5,100 -180 Level FAA TRACON SMA TRACON (SMA)
09:57AM 39.7997 -74.9514 34° Northeast 255 293 5,000 -480 Descending FAA TRACON SMA TRACON (SMA)
09:57AM 39.8225 -74.9414 19° North 215 247 4,800 -480 Descending FAA TRACON SMA TRACON (SMA)
09:57AM 39.8397 -74.9372 11° North 201 231 4,700 -300 Descending FAA TRACON SMA TRACON (SMA)
09:58AM 39.8550 -74.9394 354° North 180 207 4,600 -600 Descending FAA TRACON SMA TRACON (SMA)
09:58AM 39.8725 -74.9467 342° North 166 191 4,300 -1,080 Descending FAA TRACON SMA TRACON (SMA)
09:58AM 39.8833 -74.9581 321° Northwest 165 190 3,900 -1,200 Descending FAA TRACON SMA TRACON (SMA)
09:59AM 39.8939 -74.9700 319° Northwest 164 189 3,500 -1,200 Descending FAA TRACON SMA TRACON (SMA)
09:59AM 39.9044 -74.9878 308° West 165 190 3,100 -780 Descending FAA TRACON SMA TRACON (SMA)
09:59AM 39.9086 -75.0050 288° West 165 190 3,000  Descending FAA TRACON SMA TRACON (SMA)
10:00AM 39.9125 -75.0225 286° West 165 190 3,100 -180 Climbing FAA TRACON SMA TRACON (SMA)
10:00AM 39.9103 -75.0447 263° West 163 188 2,900 -780 Descending FAA TRACON SMA TRACON (SMA)
10:00AM 39.9069 -75.0625 256° West 159 183 2,600 -900 Descending FAA TRACON SMA TRACON (SMA)
10:01AM 39.9036 -75.0803 256° West 161 185 2,300 -900 Descending FAA TRACON SMA TRACON (SMA)
10:01AM 39.8989 -75.1017 254° West 160 184 2,000 -780 Descending FAA TRACON SMA TRACON (SMA)
10:01AM 39.8961 -75.1175 257° West 151 174 1,800 -600 Descending FAA TRACON SMA TRACON (SMA)